sensor_id;sensor_type;location;lat;lon;timestamp;temperature;humidity
23713;DHT22;12035;49.978;8.298;2023-04-24T00:01:00;15.20;66.40
23713;DHT22;12035;49.978;8.298;2023-04-24T00:05:58;15.20;66.40
23713;DHT22;12035;49.978;8.298;2023-04-24T00:10:59;15.20;66.70
23713;DHT22;12035;49.978;8.298;2023-04-24T00:15:59;15.10;67.10
23713;DHT22;12035;49.978;8.298;2023-04-24T00:20:56;15.10;66.90
23713;DHT22;12035;49.978;8.298;2023-04-24T00:25:54;15.10;67.00
23713;DHT22;12035;49.978;8.298;2023-04-24T00:30:53;15.10;67.20
23713;DHT22;12035;49.978;8.298;2023-04-24T00:35:50;15.10;67.10
23713;DHT22;12035;49.978;8.298;2023-04-24T00:40:48;15.10;67.30
23713;DHT22;12035;49.978;8.298;2023-04-24T00:45:46;15.10;67.10
23713;DHT22;12035;49.978;8.298;2023-04-24T00:50:45;15.10;67.10
23713;DHT22;12035;49.978;8.298;2023-04-24T00:55:42;15.10;67.10
23713;DHT22;12035;49.978;8.298;2023-04-24T01:00:40;15.10;66.90
23713;DHT22;12035;49.978;8.298;2023-04-24T01:05:37;15.00;66.80
23713;DHT22;12035;49.978;8.298;2023-04-24T01:10:37;15.20;67.20
23713;DHT22;12035;49.978;8.298;2023-04-24T01:15:35;15.10;67.00
23713;DHT22;12035;49.978;8.298;2023-04-24T01:20:33;15.10;67.30
23713;DHT22;12035;49.978;8.298;2023-04-24T01:25:34;15.10;67.30
23713;DHT22;12035;49.978;8.298;2023-04-24T01:30:31;15.10;67.40
23713;DHT22;12035;49.978;8.298;2023-04-24T01:35:29;15.10;67.70
23713;DHT22;12035;49.978;8.298;2023-04-24T01:40:26;15.10;67.70
23713;DHT22;12035;49.978;8.298;2023-04-24T01:45:26;15.10;67.80
23713;DHT22;12035;49.978;8.298;2023-04-24T01:50:23;15.10;68.20
23713;DHT22;12035;49.978;8.298;2023-04-24T01:55:21;15.00;68.10
23713;DHT22;12035;49.978;8.298;2023-04-24T02:00:18;15.00;68.20
23713;DHT22;12035;49.978;8.298;2023-04-24T02:05:17;14.90;68.60
23713;DHT22;12035;49.978;8.298;2023-04-24T02:10:15;14.90;68.70
23713;DHT22;12035;49.978;8.298;2023-04-24T02:15:13;14.90;68.90
23713;DHT22;12035;49.978;8.298;2023-04-24T02:20:10;14.90;69.10
23713;DHT22;12035;49.978;8.298;2023-04-24T02:25:10;14.90;69.20
23713;DHT22;12035;49.978;8.298;2023-04-24T02:30:10;14.90;69.20
23713;DHT22;12035;49.978;8.298;2023-04-24T02:35:08;14.90;69.20
23713;DHT22;12035;49.978;8.298;2023-04-24T02:40:09;14.90;69.20
23713;DHT22;12035;49.978;8.298;2023-04-24T02:45:08;14.90;69.40
23713;DHT22;12035;49.978;8.298;2023-04-24T02:50:07;14.90;69.50
23713;DHT22;12035;49.978;8.298;2023-04-24T02:55:05;14.90;69.80
23713;DHT22;12035;49.978;8.298;2023-04-24T03:00:07;14.90;69.90
23713;DHT22;12035;49.978;8.298;2023-04-24T03:05:05;14.90;70.00
23713;DHT22;12035;49.978;8.298;2023-04-24T03:10:05;14.90;69.90
23713;DHT22;12035;49.978;8.298;2023-04-24T03:15:07;14.90;69.80
23713;DHT22;12035;49.978;8.298;2023-04-24T03:20:06;14.90;69.90
23713;DHT22;12035;49.978;8.298;2023-04-24T03:25:05;14.90;69.70
23713;DHT22;12035;49.978;8.298;2023-04-24T03:30:07;14.90;69.70
23713;DHT22;12035;49.978;8.298;2023-04-24T03:35:05;14.90;69.90
23713;DHT22;12035;49.978;8.298;2023-04-24T03:40:05;14.90;69.70
23713;DHT22;12035;49.978;8.298;2023-04-24T03:45:04;15.00;69.70
23713;DHT22;12035;49.978;8.298;2023-04-24T03:50:05;15.00;68.90
23713;DHT22;12035;49.978;8.298;2023-04-24T03:55:03;15.00;68.20
23713;DHT22;12035;49.978;8.298;2023-04-24T04:00:02;14.90;68.00
23713;DHT22;12035;49.978;8.298;2023-04-24T04:05:02;14.80;67.90
23713;DHT22;12035;49.978;8.298;2023-04-24T04:10:00;14.80;67.80
23713;DHT22;12035;49.978;8.298;2023-04-24T04:14:57;14.70;67.40
23713;DHT22;12035;49.978;8.298;2023-04-24T04:19:55;14.70;67.10
23713;DHT22;12035;49.978;8.298;2023-04-24T04:24:58;14.60;66.90
23713;DHT22;12035;49.978;8.298;2023-04-24T04:29:55;14.50;66.00
23713;DHT22;12035;49.978;8.298;2023-04-24T04:34:52;14.50;65.80
23713;DHT22;12035;49.978;8.298;2023-04-24T04:39:50;14.40;65.20
23713;DHT22;12035;49.978;8.298;2023-04-24T04:44:50;14.30;63.80
23713;DHT22;12035;49.978;8.298;2023-04-24T04:49:48;14.30;62.80
23713;DHT22;12035;49.978;8.298;2023-04-24T04:54:46;14.30;62.60
23713;DHT22;12035;49.978;8.298;2023-04-24T04:59:44;14.50;62.60
23713;DHT22;12035;49.978;8.298;2023-04-24T05:04:43;14.90;61.50
23713;DHT22;12035;49.978;8.298;2023-04-24T05:09:40;15.10;59.60
23713;DHT22;12035;49.978;8.298;2023-04-24T05:14:38;15.30;58.50
23713;DHT22;12035;49.978;8.298;2023-04-24T05:19:36;15.40;57.90
23713;DHT22;12035;49.978;8.298;2023-04-24T05:24:38;15.30;57.50
23713;DHT22;12035;49.978;8.298;2023-04-24T05:29:36;15.50;57.90
23713;DHT22;12035;49.978;8.298;2023-04-24T05:34:34;16.00;58.60
23713;DHT22;12035;49.978;8.298;2023-04-24T05:39:31;16.60;58.50
23713;DHT22;12035;49.978;8.298;2023-04-24T05:44:30;17.00;56.70
23713;DHT22;12035;49.978;8.298;2023-04-24T05:49:28;17.30;55.40
23713;DHT22;12035;49.978;8.298;2023-04-24T05:54:25;17.30;55.10
23713;DHT22;12035;49.978;8.298;2023-04-24T05:59:22;17.40;54.70
23713;DHT22;12035;49.978;8.298;2023-04-24T06:04:21;17.60;54.90
23713;DHT22;12035;49.978;8.298;2023-04-24T06:09:19;17.80;55.60
23713;DHT22;12035;49.978;8.298;2023-04-24T06:14:17;18.20;55.20
23713;DHT22;12035;49.978;8.298;2023-04-24T06:19:15;18.40;54.40
23713;DHT22;12035;49.978;8.298;2023-04-24T06:24:15;18.40;53.40
23713;DHT22;12035;49.978;8.298;2023-04-24T06:29:12;18.20;53.10
23713;DHT22;12035;49.978;8.298;2023-04-24T06:34:09;17.90;53.70
23713;DHT22;12035;49.978;8.298;2023-04-24T06:39:07;17.70;54.20
23713;DHT22;12035;49.978;8.298;2023-04-24T06:44:06;17.60;54.20
23713;DHT22;12035;49.978;8.298;2023-04-24T06:49:03;17.50;54.20
23713;DHT22;12035;49.978;8.298;2023-04-24T06:54:01;17.30;54.40
23713;DHT22;12035;49.978;8.298;2023-04-24T06:58:58;17.10;54.60
23713;DHT22;12035;49.978;8.298;2023-04-24T07:03:57;17.20;55.30
23713;DHT22;12035;49.978;8.298;2023-04-24T07:08:54;17.40;55.90
23713;DHT22;12035;49.978;8.298;2023-04-24T07:13:52;17.90;56.20
23713;DHT22;12035;49.978;8.298;2023-04-24T07:18:49;18.50;55.30
23713;DHT22;12035;49.978;8.298;2023-04-24T07:23:48;19.10;54.30
23713;DHT22;12035;49.978;8.298;2023-04-24T07:28:45;19.70;53.20
23713;DHT22;12035;49.978;8.298;2023-04-24T07:33:43;20.30;51.80
23713;DHT22;12035;49.978;8.298;2023-04-24T07:38:41;20.90;50.00
23713;DHT22;12035;49.978;8.298;2023-04-24T07:43:40;21.20;48.00
23713;DHT22;12035;49.978;8.298;2023-04-24T07:48:38;21.50;46.20
23713;DHT22;12035;49.978;8.298;2023-04-24T07:53:35;21.60;46.60
23713;DHT22;12035;49.978;8.298;2023-04-24T07:58:32;21.80;46.30
23713;DHT22;12035;49.978;8.298;2023-04-24T08:03:31;22.00;45.60
23713;DHT22;12035;49.978;8.298;2023-04-24T08:08:29;22.20;44.50
23713;DHT22;12035;49.978;8.298;2023-04-24T08:13:26;22.40;45.30
23713;DHT22;12035;49.978;8.298;2023-04-24T08:18:23;22.60;44.00
23713;DHT22;12035;49.978;8.298;2023-04-24T08:23:23;22.80;44.00
23713;DHT22;12035;49.978;8.298;2023-04-24T08:28:25;22.70;42.80
23713;DHT22;12035;49.978;8.298;2023-04-24T08:33:23;22.30;42.40
23713;DHT22;12035;49.978;8.298;2023-04-24T08:38:20;21.70;42.40
23713;DHT22;12035;49.978;8.298;2023-04-24T08:43:21;20.90;42.90
23713;DHT22;12035;49.978;8.298;2023-04-24T08:48:19;20.10;43.90
23713;DHT22;12035;49.978;8.298;2023-04-24T08:53:18;19.30;44.80
23713;DHT22;12035;49.978;8.298;2023-04-24T08:58:18;18.60;46.20
23713;DHT22;12035;49.978;8.298;2023-04-24T09:03:16;18.10;47.50
23713;DHT22;12035;49.978;8.298;2023-04-24T09:08:14;17.80;48.20
23713;DHT22;12035;49.978;8.298;2023-04-24T09:13:13;17.60;48.90
23713;DHT22;12035;49.978;8.298;2023-04-24T09:18:13;17.50;49.30
23713;DHT22;12035;49.978;8.298;2023-04-24T09:23:10;17.50;49.40
23713;DHT22;12035;49.978;8.298;2023-04-24T09:28:11;17.30;49.80
23713;DHT22;12035;49.978;8.298;2023-04-24T09:33:15;17.20;50.10
23713;DHT22;12035;49.978;8.298;2023-04-24T09:38:12;17.00;50.10
23713;DHT22;12035;49.978;8.298;2023-04-24T09:43:11;16.90;50.30
23713;DHT22;12035;49.978;8.298;2023-04-24T09:48:09;16.80;50.80
23713;DHT22;12035;49.978;8.298;2023-04-24T09:53:08;16.80;51.10
23713;DHT22;12035;49.978;8.298;2023-04-24T09:58:07;16.90;51.30
23713;DHT22;12035;49.978;8.298;2023-04-24T10:03:06;16.70;51.50
23713;DHT22;12035;49.978;8.298;2023-04-24T10:08:10;16.60;52.10
23713;DHT22;12035;49.978;8.298;2023-04-24T10:13:09;16.40;52.70
23713;DHT22;12035;49.978;8.298;2023-04-24T10:18:08;16.30;53.30
23713;DHT22;12035;49.978;8.298;2023-04-24T10:23:06;16.30;53.90
23713;DHT22;12035;49.978;8.298;2023-04-24T10:28:06;16.30;54.60
23713;DHT22;12035;49.978;8.298;2023-04-24T10:33:04;16.40;55.10
23713;DHT22;12035;49.978;8.298;2023-04-24T10:38:06;16.50;55.30
23713;DHT22;12035;49.978;8.298;2023-04-24T10:43:07;16.50;55.30
23713;DHT22;12035;49.978;8.298;2023-04-24T10:48:07;16.40;55.80
23713;DHT22;12035;49.978;8.298;2023-04-24T10:53:13;16.40;56.40
23713;DHT22;12035;49.978;8.298;2023-04-24T10:58:14;16.30;56.30
23713;DHT22;12035;49.978;8.298;2023-04-24T11:03:26;16.30;56.40
23713;DHT22;12035;49.978;8.298;2023-04-24T11:08:31;16.30;55.50
23713;DHT22;12035;49.978;8.298;2023-04-24T11:14:03;16.30;55.00
23713;DHT22;12035;49.978;8.298;2023-04-24T11:19:06;16.30;54.70
23713;DHT22;12035;49.978;8.298;2023-04-24T11:24:29;16.30;54.30
23713;DHT22;12035;49.978;8.298;2023-04-24T11:29:47;16.20;54.70
23713;DHT22;12035;49.978;8.298;2023-04-24T11:34:49;16.20;56.30
23713;DHT22;12035;49.978;8.298;2023-04-24T11:39:50;16.30;57.10
23713;DHT22;12035;49.978;8.298;2023-04-24T11:44:52;16.30;57.00
23713;DHT22;12035;49.978;8.298;2023-04-24T11:49:51;16.40;56.40
23713;DHT22;12035;49.978;8.298;2023-04-24T11:54:49;16.50;56.30
23713;DHT22;12035;49.978;8.298;2023-04-24T11:59:46;16.60;55.50
23713;DHT22;12035;49.978;8.298;2023-04-24T12:04:45;16.70;55.30
23713;DHT22;12035;49.978;8.298;2023-04-24T12:09:45;16.90;56.70
23713;DHT22;12035;49.978;8.298;2023-04-24T12:14:50;17.10;56.80
23713;DHT22;12035;49.978;8.298;2023-04-24T12:19:52;17.10;56.10
23713;DHT22;12035;49.978;8.298;2023-04-24T12:24:58;17.20;55.90
23713;DHT22;12035;49.978;8.298;2023-04-24T12:29:57;17.10;55.80
23713;DHT22;12035;49.978;8.298;2023-04-24T12:34:57;17.00;55.90
23713;DHT22;12035;49.978;8.298;2023-04-24T12:40:03;17.00;56.20
23713;DHT22;12035;49.978;8.298;2023-04-24T12:45:04;17.20;56.10
23713;DHT22;12035;49.978;8.298;2023-04-24T12:50:06;17.30;54.30
23713;DHT22;12035;49.978;8.298;2023-04-24T12:55:05;17.40;52.70
23713;DHT22;12035;49.978;8.298;2023-04-24T13:00:06;17.50;52.00
23713;DHT22;12035;49.978;8.298;2023-04-24T13:05:07;17.60;50.90
23713;DHT22;12035;49.978;8.298;2023-04-24T13:10:08;17.70;50.30
23713;DHT22;12035;49.978;8.298;2023-04-24T13:15:06;17.70;50.70
23713;DHT22;12035;49.978;8.298;2023-04-24T13:20:08;17.90;50.40
23713;DHT22;12035;49.978;8.298;2023-04-24T13:25:06;17.90;50.30
23713;DHT22;12035;49.978;8.298;2023-04-24T13:30:05;17.90;51.00
23713;DHT22;12035;49.978;8.298;2023-04-24T13:35:03;17.80;51.70
23713;DHT22;12035;49.978;8.298;2023-04-24T13:40:03;17.60;52.10
23713;DHT22;12035;49.978;8.298;2023-04-24T13:45:03;17.50;52.30
23713;DHT22;12035;49.978;8.298;2023-04-24T13:50:01;17.50;52.20
23713;DHT22;12035;49.978;8.298;2023-04-24T13:54:58;17.50;52.10
23713;DHT22;12035;49.978;8.298;2023-04-24T13:59:59;17.50;51.50
23713;DHT22;12035;49.978;8.298;2023-04-24T14:04:59;17.50;50.50
23713;DHT22;12035;49.978;8.298;2023-04-24T14:09:56;17.50;49.40
23713;DHT22;12035;49.978;8.298;2023-04-24T14:14:53;17.40;49.00
23713;DHT22;12035;49.978;8.298;2023-04-24T14:19:52;17.50;49.20
23713;DHT22;12035;49.978;8.298;2023-04-24T14:24:51;17.50;49.40
23713;DHT22;12035;49.978;8.298;2023-04-24T14:29:48;17.70;49.00
23713;DHT22;12035;49.978;8.298;2023-04-24T14:34:48;17.70;48.50
23713;DHT22;12035;49.978;8.298;2023-04-24T14:39:47;17.60;47.90
23713;DHT22;12035;49.978;8.298;2023-04-24T14:44:45;17.70;48.20
23713;DHT22;12035;49.978;8.298;2023-04-24T14:49:42;17.70;48.70
23713;DHT22;12035;49.978;8.298;2023-04-24T14:54:40;17.70;48.80
23713;DHT22;12035;49.978;8.298;2023-04-24T14:59:39;17.60;49.00
23713;DHT22;12035;49.978;8.298;2023-04-24T15:04:36;17.60;48.80
23713;DHT22;12035;49.978;8.298;2023-04-24T15:09:34;17.50;49.20
23713;DHT22;12035;49.978;8.298;2023-04-24T15:14:31;17.60;49.40
23713;DHT22;12035;49.978;8.298;2023-04-24T15:19:31;17.70;48.60
23713;DHT22;12035;49.978;8.298;2023-04-24T15:24:28;17.80;48.40
23713;DHT22;12035;49.978;8.298;2023-04-24T15:29:25;17.90;48.50
23713;DHT22;12035;49.978;8.298;2023-04-24T15:34:23;18.10;48.20
23713;DHT22;12035;49.978;8.298;2023-04-24T15:39:23;18.20;47.90
23713;DHT22;12035;49.978;8.298;2023-04-24T15:44:22;18.20;47.20
23713;DHT22;12035;49.978;8.298;2023-04-24T15:49:19;18.20;47.60
23713;DHT22;12035;49.978;8.298;2023-04-24T15:54:17;18.10;47.70
23713;DHT22;12035;49.978;8.298;2023-04-24T15:59:16;18.10;47.60
23713;DHT22;12035;49.978;8.298;2023-04-24T16:04:14;18.00;47.20
23713;DHT22;12035;49.978;8.298;2023-04-24T16:09:11;17.90;48.10
23713;DHT22;12035;49.978;8.298;2023-04-24T16:14:09;17.80;48.40
23713;DHT22;12035;49.978;8.298;2023-04-24T16:19:09;17.70;47.80
23713;DHT22;12035;49.978;8.298;2023-04-24T16:24:06;17.60;48.10
23713;DHT22;12035;49.978;8.298;2023-04-24T16:29:03;17.60;48.10
23713;DHT22;12035;49.978;8.298;2023-04-24T16:34:01;17.50;48.20
23713;DHT22;12035;49.978;8.298;2023-04-24T16:39:00;17.50;48.20
23713;DHT22;12035;49.978;8.298;2023-04-24T16:43:59;17.60;48.30
23713;DHT22;12035;49.978;8.298;2023-04-24T16:48:57;17.60;48.70
23713;DHT22;12035;49.978;8.298;2023-04-24T16:53:54;17.60;47.90
23713;DHT22;12035;49.978;8.298;2023-04-24T16:58:53;17.80;47.70
23713;DHT22;12035;49.978;8.298;2023-04-24T17:03:50;17.80;47.60
23713;DHT22;12035;49.978;8.298;2023-04-24T17:08:48;17.80;47.70
23713;DHT22;12035;49.978;8.298;2023-04-24T17:13:45;17.80;47.30
23713;DHT22;12035;49.978;8.298;2023-04-24T17:18:44;17.70;47.40
23713;DHT22;12035;49.978;8.298;2023-04-24T17:23:41;17.60;48.00
23713;DHT22;12035;49.978;8.298;2023-04-24T17:28:39;17.50;49.60
23713;DHT22;12035;49.978;8.298;2023-04-24T17:33:37;17.30;50.50
23713;DHT22;12035;49.978;8.298;2023-04-24T17:38:35;16.90;51.50
23713;DHT22;12035;49.978;8.298;2023-04-24T17:43:33;16.60;52.60
23713;DHT22;12035;49.978;8.298;2023-04-24T17:48:30;16.30;53.60
23713;DHT22;12035;49.978;8.298;2023-04-24T17:53:28;15.90;54.40
23713;DHT22;12035;49.978;8.298;2023-04-24T17:58:28;15.70;55.30
23713;DHT22;12035;49.978;8.298;2023-04-24T18:03:25;15.50;56.30
23713;DHT22;12035;49.978;8.298;2023-04-24T18:08:22;15.30;56.80
23713;DHT22;12035;49.978;8.298;2023-04-24T18:13:20;15.20;57.00
23713;DHT22;12035;49.978;8.298;2023-04-24T18:18:19;15.00;57.60
23713;DHT22;12035;49.978;8.298;2023-04-24T18:23:16;15.00;58.10
23713;DHT22;12035;49.978;8.298;2023-04-24T18:28:14;14.80;58.10
23713;DHT22;12035;49.978;8.298;2023-04-24T18:33:11;14.90;58.50
23713;DHT22;12035;49.978;8.298;2023-04-24T18:38:11;14.80;58.60
23713;DHT22;12035;49.978;8.298;2023-04-24T18:43:08;14.70;58.80
23713;DHT22;12035;49.978;8.298;2023-04-24T18:48:06;14.70;58.80
23713;DHT22;12035;49.978;8.298;2023-04-24T18:53:04;14.70;58.90
23713;DHT22;12035;49.978;8.298;2023-04-24T18:58:03;14.60;59.20
23713;DHT22;12035;49.978;8.298;2023-04-24T19:03:00;14.70;59.30
23713;DHT22;12035;49.978;8.298;2023-04-24T19:08:00;14.60;59.10
23713;DHT22;12035;49.978;8.298;2023-04-24T19:12:58;14.70;59.30
23713;DHT22;12035;49.978;8.298;2023-04-24T19:17:57;14.70;59.30
23713;DHT22;12035;49.978;8.298;2023-04-24T19:22:55;14.80;59.30
23713;DHT22;12035;49.978;8.298;2023-04-24T19:27:53;15.00;59.80
23713;DHT22;12035;49.978;8.298;2023-04-24T19:32:50;15.00;59.00
23713;DHT22;12035;49.978;8.298;2023-04-24T19:37:49;15.10;59.00
23713;DHT22;12035;49.978;8.298;2023-04-24T19:42:47;15.10;59.00
23713;DHT22;12035;49.978;8.298;2023-04-24T19:47:44;15.10;58.80
23713;DHT22;12035;49.978;8.298;2023-04-24T19:52:42;15.10;58.80
23713;DHT22;12035;49.978;8.298;2023-04-24T19:57:40;15.00;58.70
23713;DHT22;12035;49.978;8.298;2023-04-24T20:02:38;15.00;58.80
23713;DHT22;12035;49.978;8.298;2023-04-24T20:07:35;14.90;58.80
23713;DHT22;12035;49.978;8.298;2023-04-24T20:12:33;14.90;59.00
23713;DHT22;12035;49.978;8.298;2023-04-24T20:17:32;14.80;59.20
23713;DHT22;12035;49.978;8.298;2023-04-24T20:22:29;14.90;59.40
23713;DHT22;12035;49.978;8.298;2023-04-24T20:27:30;14.80;59.40
23713;DHT22;12035;49.978;8.298;2023-04-24T20:32:27;14.80;59.50
23713;DHT22;12035;49.978;8.298;2023-04-24T20:37:25;14.80;59.60
23713;DHT22;12035;49.978;8.298;2023-04-24T20:42:23;14.70;59.80
23713;DHT22;12035;49.978;8.298;2023-04-24T20:47:21;14.70;59.80
23713;DHT22;12035;49.978;8.298;2023-04-24T20:52:19;14.70;59.80
23713;DHT22;12035;49.978;8.298;2023-04-24T20:57:20;14.70;59.90
23713;DHT22;12035;49.978;8.298;2023-04-24T21:02:20;14.70;60.00
23713;DHT22;12035;49.978;8.298;2023-04-24T21:07:19;14.70;59.90
23713;DHT22;12035;49.978;8.298;2023-04-24T21:12:16;14.70;59.80
23713;DHT22;12035;49.978;8.298;2023-04-24T21:17:15;14.80;59.60
23713;DHT22;12035;49.978;8.298;2023-04-24T21:22:12;14.80;59.60
23713;DHT22;12035;49.978;8.298;2023-04-24T21:27:10;14.70;59.60
23713;DHT22;12035;49.978;8.298;2023-04-24T21:32:07;14.80;59.20
23713;DHT22;12035;49.978;8.298;2023-04-24T21:37:05;14.70;59.70
23713;DHT22;12035;49.978;8.298;2023-04-24T21:42:03;14.70;59.80
23713;DHT22;12035;49.978;8.298;2023-04-24T21:47:00;14.60;59.60
23713;DHT22;12035;49.978;8.298;2023-04-24T21:51:58;14.50;59.60
23713;DHT22;12035;49.978;8.298;2023-04-24T21:56:57;14.40;59.60
23713;DHT22;12035;49.978;8.298;2023-04-24T22:01:58;14.30;59.80
23713;DHT22;12035;49.978;8.298;2023-04-24T22:06:58;14.30;59.80
23713;DHT22;12035;49.978;8.298;2023-04-24T22:11:57;14.30;59.80
23713;DHT22;12035;49.978;8.298;2023-04-24T22:16:55;14.20;60.20
23713;DHT22;12035;49.978;8.298;2023-04-24T22:21:52;14.20;60.50
23713;DHT22;12035;49.978;8.298;2023-04-24T22:26:50;14.10;60.90
23713;DHT22;12035;49.978;8.298;2023-04-24T22:31:49;14.00;61.20
23713;DHT22;12035;49.978;8.298;2023-04-24T22:36:46;13.80;61.80
23713;DHT22;12035;49.978;8.298;2023-04-24T22:41:44;13.70;62.10
23713;DHT22;12035;49.978;8.298;2023-04-24T22:46:41;13.70;62.40
23713;DHT22;12035;49.978;8.298;2023-04-24T22:51:42;13.60;62.60
23713;DHT22;12035;49.978;8.298;2023-04-24T22:56:40;13.60;63.10
23713;DHT22;12035;49.978;8.298;2023-04-24T23:01:37;13.60;64.00
23713;DHT22;12035;49.978;8.298;2023-04-24T23:06:35;13.60;63.40
23713;DHT22;12035;49.978;8.298;2023-04-24T23:11:38;13.50;63.50
23713;DHT22;12035;49.978;8.298;2023-04-24T23:16:38;13.50;63.90
23713;DHT22;12035;49.978;8.298;2023-04-24T23:21:37;13.50;63.90
23713;DHT22;12035;49.978;8.298;2023-04-24T23:26:36;13.50;64.00
23713;DHT22;12035;49.978;8.298;2023-04-24T23:31:33;13.50;64.90
23713;DHT22;12035;49.978;8.298;2023-04-24T23:36:31;13.40;64.00
23713;DHT22;12035;49.978;8.298;2023-04-24T23:54:07;13.30;65.30
23713;DHT22;12035;49.978;8.298;2023-04-24T23:59:30;13.20;65.70
